Time;durP1;ratioP1;P1;durP2;ratioP2;P2;SDS_P1;SDS_P2;PMS_P1;PMS_P2;Temp;Humidity;BMP_temperature;BMP_pressure;BME280_temperature;BME280_humidity;BME280_pressure;Samples;Min_cycle;Max_cycle;Signal;HPM_P1;HPM_P2
2022/10/22 00:01:27;;;;;;;27.02;22.80;;;;;;;;;;6308907;22;20137;-82
2022/10/22 00:03:53;;;;;;;24.67;18.83;;;;;;;;;;6308589;22;20326;-81
2022/10/22 00:06:19;;;;;;;19.35;17.15;;;;;;;;;;6308693;22;20060;-81
2022/10/22 00:08:45;;;;;;;22.02;16.70;;;;;;;;;;6308640;22;20388;-80
2022/10/22 00:11:30;;;;;;;20.33;16.48;;;;;;;;;;6308822;22;20007;-81
2022/10/22 00:13:57;;;;;;;21.92;17.10;;;;;;;;;;6308655;22;20003;-82
2022/10/22 00:16:23;;;;;;;20.25;16.67;;;;;;;;;;6308623;22;20007;-80
2022/10/22 00:18:49;;;;;;;20.30;16.40;;;;;;;;;;6281250;22;19999;-81
2022/10/22 00:21:15;;;;;;;21.77;18.38;;;;;;;;;;6308669;22;19999;-83
2022/10/22 00:23:42;;;;;;;25.73;19.20;;;;;;;;;;6308613;22;20334;-79
2022/10/22 00:26:08;;;;;;;20.63;17.77;;;;;;;;;;6308480;22;20019;-79
2022/10/22 00:28:34;;;;;;;21.50;18.23;;;;;;;;;;6308620;22;20326;-82
2022/10/22 00:31:00;;;;;;;23.38;17.95;;;;;;;;;;6308441;22;20473;-80
2022/10/22 00:33:27;;;;;;;21.98;17.95;;;;;;;;;;6308411;22;19999;-79
2022/10/22 00:35:53;;;;;;;23.80;20.17;;;;;;;;;;6308339;22;20008;-82
2022/10/22 00:38:19;;;;;;;23.48;18.83;;;;;;;;;;6308382;22;20026;-81
2022/10/22 00:40:46;;;;;;;21.90;18.08;;;;;;;;;;6281241;22;20372;-78
2022/10/22 00:43:16;;;;;;;23.67;18.58;;;;;;;;;;6308368;22;19999;-78
2022/10/22 00:45:42;;;;;;;21.17;18.65;;;;;;;;;;6308279;22;20003;-79
2022/10/22 00:48:10;;;;;;;24.15;19.52;;;;;;;;;;6308271;22;20422;-82
2022/10/22 00:50:51;;;;;;;27.00;21.23;;;;;;;;;;6308248;22;20504;-81
2022/10/22 00:53:19;;;;;;;23.38;20.30;;;;;;;;;;6308259;22;20010;-81
2022/10/22 00:55:47;;;;;;;24.98;20.38;;;;;;;;;;6308180;22;20003;-79
2022/10/22 00:58:13;;;;;;;21.50;17.27;;;;;;;;;;6309730;22;20407;-80
2022/10/22 01:00:39;;;;;;;25.50;19.25;;;;;;;;;;6308323;22;20018;-80
2022/10/22 01:03:06;;;;;;;23.13;17.13;;;;;;;;;;6308083;22;20056;-81
2022/10/22 01:05:36;;;;;;;19.75;15.38;;;;;;;;;;6307927;22;20320;-80
2022/10/22 01:08:02;;;;;;;22.83;16.63;;;;;;;;;;6308063;22;20006;-79
2022/10/22 01:10:40;;;;;;;18.58;16.27;;;;;;;;;;6308033;22;20010;-80
2022/10/22 01:13:06;;;;;;;20.30;16.58;;;;;;;;;;6280678;22;20003;-83
2022/10/22 01:15:32;;;;;;;20.33;15.07;;;;;;;;;;6307917;22;19999;-78
2022/10/22 01:18:08;;;;;;;19.30;15.07;;;;;;;;;;6307923;22;19996;-80
2022/10/22 01:20:37;;;;;;;20.67;16.13;;;;;;;;;;6308099;22;19995;-82
2022/10/22 01:23:20;;;;;;;23.30;18.23;;;;;;;;;;6307940;22;20049;-80
2022/10/22 01:25:52;;;;;;;22.33;15.32;;;;;;;;;;6307922;22;19999;-81
2022/10/22 01:28:25;;;;;;;18.23;15.18;;;;;;;;;;6307836;22;20400;-80
2022/10/22 01:30:53;;;;;;;18.17;16.05;;;;;;;;;;6307883;22;19996;-78
2022/10/22 01:33:20;;;;;;;21.42;17.40;;;;;;;;;;6307946;22;20049;-80
2022/10/22 01:35:46;;;;;;;20.38;16.80;;;;;;;;;;6307789;22;20007;-80
2022/10/22 01:38:15;;;;;;;20.60;16.95;;;;;;;;;;6307828;22;19992;-81
2022/10/22 01:40:41;;;;;;;19.90;17.65;;;;;;;;;;6307781;22;20041;-82
2022/10/22 01:43:09;;;;;;;21.67;17.75;;;;;;;;;;6307971;22;20005;-82
2022/10/22 01:45:36;;;;;;;20.52;17.80;;;;;;;;;;6307770;22;19999;-80
2022/10/22 01:48:12;;;;;;;19.23;17.23;;;;;;;;;;6307823;22;20372;-80
2022/10/22 01:50:51;;;;;;;20.88;18.10;;;;;;;;;;6307716;22;19995;-79
2022/10/22 01:53:20;;;;;;;19.83;16.38;;;;;;;;;;6307487;22;19999;-81
2022/10/22 01:56:07;;;;;;;18.30;16.23;;;;;;;;;;6307683;22;20333;-79
2022/10/22 01:58:51;;;;;;;22.50;17.20;;;;;;;;;;6308091;22;20033;-80
2022/10/22 02:01:36;;;;;;;19.23;16.70;;;;;;;;;;6307711;22;20365;-78
2022/10/22 02:04:09;;;;;;;22.20;16.95;;;;;;;;;;6308702;22;20015;-79
2022/10/22 02:06:36;;;;;;;20.20;16.48;;;;;;;;;;6307990;22;19999;-78
2022/10/22 02:09:03;;;;;;;24.70;19.23;;;;;;;;;;6307721;22;20062;-78
2022/10/22 02:11:29;;;;;;;18.70;16.52;;;;;;;;;;6307721;22;19996;-81
2022/10/22 02:13:57;;;;;;;23.67;18.40;;;;;;;;;;6307591;22;19995;-82
2022/10/22 02:16:29;;;;;;;20.40;17.02;;;;;;;;;;6307716;22;20316;-78
2022/10/22 02:18:57;;;;;;;24.02;18.70;;;;;;;;;;6307647;22;20003;-81
2022/10/22 02:21:24;;;;;;;21.23;17.50;;;;;;;;;;6307738;22;20000;-82
2022/10/22 02:23:50;;;;;;;20.52;16.95;;;;;;;;;;6307606;22;20023;-82
2022/10/22 02:26:21;;;;;;;19.85;17.75;;;;;;;;;;6307532;22;20010;-80
2022/10/22 02:28:53;;;;;;;21.15;17.30;;;;;;;;;;6307578;22;19999;-82
2022/10/22 02:31:22;;;;;;;19.85;17.15;;;;;;;;;;6307674;22;20005;-80
2022/10/22 02:33:51;;;;;;;19.67;16.00;;;;;;;;;;6307521;22;20030;-83
2022/10/22 02:36:18;;;;;;;17.25;15.32;;;;;;;;;;6307520;22;20031;-81
2022/10/22 02:38:45;;;;;;;18.40;16.38;;;;;;;;;;6307493;22;20470;-81
2022/10/22 02:41:11;;;;;;;16.92;14.50;;;;;;;;;;6307745;22;20044;-81
2022/10/22 02:43:41;;;;;;;21.70;17.38;;;;;;;;;;6307469;22;20006;-81
2022/10/22 02:46:08;;;;;;;21.52;16.67;;;;;;;;;;6307537;22;20003;-80
2022/10/22 02:48:34;;;;;;;18.38;15.55;;;;;;;;;;6307536;22;20006;-79
2022/10/22 02:51:00;;;;;;;22.88;17.80;;;;;;;;;;6307704;22;20006;-80
2022/10/22 02:53:26;;;;;;;18.27;16.27;;;;;;;;;;6307502;22;20070;-80
2022/10/22 02:55:52;;;;;;;21.77;17.27;;;;;;;;;;6307359;22;20004;-81
2022/10/22 02:58:18;;;;;;;22.92;19.02;;;;;;;;;;6307721;22;20008;-81
2022/10/22 03:00:45;;;;;;;23.63;18.77;;;;;;;;;;6307469;22;19997;-79
2022/10/22 03:03:11;;;;;;;24.30;19.58;;;;;;;;;;6307697;22;19996;-78
2022/10/22 03:05:37;;;;;;;24.33;20.38;;;;;;;;;;6280805;22;20015;-79
2022/10/22 03:08:03;;;;;;;21.88;19.00;;;;;;;;;;6309349;22;19999;-80
2022/10/22 03:10:29;;;;;;;20.95;18.35;;;;;;;;;;6310461;22;19999;-80
2022/10/22 03:12:56;;;;;;;23.15;17.80;;;;;;;;;;6310039;22;20007;-82
2022/10/22 03:15:22;;;;;;;24.88;18.05;;;;;;;;;;6281761;22;20339;-81
2022/10/22 03:17:48;;;;;;;34.67;23.05;;;;;;;;;;6309185;22;20431;-83
2022/10/22 03:20:14;;;;;;;27.08;20.08;;;;;;;;;;6309245;22;19999;-80
2022/10/22 03:22:42;;;;;;;23.00;18.13;;;;;;;;;;6309020;22;20366;-81
2022/10/22 03:25:10;;;;;;;23.73;18.13;;;;;;;;;;6309123;22;20053;-79
2022/10/22 03:27:38;;;;;;;21.50;18.30;;;;;;;;;;6309128;22;20461;-80
2022/10/22 03:30:05;;;;;;;25.15;20.20;;;;;;;;;;6309133;22;20003;-82
2022/10/22 03:32:31;;;;;;;25.10;20.90;;;;;;;;;;6309209;22;20003;-81
2022/10/22 03:34:57;;;;;;;31.35;23.88;;;;;;;;;;6309046;22;20006;-79
2022/10/22 03:37:24;;;;;;;35.83;27.90;;;;;;;;;;6308945;22;20003;-80
2022/10/22 03:39:50;;;;;;;47.25;32.97;;;;;;;;;;6309026;22;19999;-83
2022/10/22 03:42:16;;;;;;;48.13;33.17;;;;;;;;;;6308940;22;20070;-82
2022/10/22 03:44:43;;;;;;;52.40;35.72;;;;;;;;;;6308995;22;20488;-79
2022/10/22 03:47:10;;;;;;;57.72;40.42;;;;;;;;;;6309138;22;20003;-82
2022/10/22 03:49:36;;;;;;;55.63;41.53;;;;;;;;;;6309053;22;20002;-80
2022/10/22 03:52:06;;;;;;;58.08;44.97;;;;;;;;;;6309092;22;20070;-82
2022/10/22 03:54:32;;;;;;;49.35;37.30;;;;;;;;;;6308842;22;20074;-81
2022/10/22 03:56:58;;;;;;;40.20;31.25;;;;;;;;;;6308812;22;20049;-82
2022/10/22 03:59:24;;;;;;;36.13;29.52;;;;;;;;;;6309351;22;20128;-80
2022/10/22 04:01:50;;;;;;;41.35;33.33;;;;;;;;;;6308654;22;20128;-80
2022/10/22 04:04:16;;;;;;;35.63;29.50;;;;;;;;;;6308520;22;20049;-79
2022/10/22 04:06:42;;;;;;;33.60;27.38;;;;;;;;;;6308758;22;20033;-80
2022/10/22 04:09:08;;;;;;;28.70;23.88;;;;;;;;;;6308789;22;19996;-88
2022/10/22 04:11:35;;;;;;;29.60;23.73;;;;;;;;;;6308914;22;19995;-84
2022/10/22 04:14:01;;;;;;;27.13;19.67;;;;;;;;;;6308805;22;19995;-83
2022/10/22 04:16:29;;;;;;;22.58;18.20;;;;;;;;;;6308630;22;20003;-80
2022/10/22 04:18:56;;;;;;;21.33;17.38;;;;;;;;;;6308911;22;20003;-80
2022/10/22 04:21:22;;;;;;;21.23;17.45;;;;;;;;;;6308748;22;20062;-82
2022/10/22 04:23:49;;;;;;;23.77;17.50;;;;;;;;;;6308690;22;20003;-84
2022/10/22 04:26:16;;;;;;;19.80;16.58;;;;;;;;;;6281395;22;20007;-85
2022/10/22 04:28:42;;;;;;;20.63;16.88;;;;;;;;;;6308616;22;20006;-81
2022/10/22 04:31:12;;;;;;;25.05;20.27;;;;;;;;;;6308642;22;19999;-84
2022/10/22 04:33:38;;;;;;;28.60;22.55;;;;;;;;;;6308520;22;20002;-83
2022/10/22 04:36:08;;;;;;;35.40;28.00;;;;;;;;;;6308680;22;20031;-85
2022/10/22 04:38:35;;;;;;;26.17;22.88;;;;;;;;;;6308493;22;19999;-79
2022/10/22 04:41:17;;;;;;;26.13;20.88;;;;;;;;;;6308629;22;19999;-81
2022/10/22 04:43:43;;;;;;;25.50;22.58;;;;;;;;;;6308372;22;19999;-83
2022/10/22 04:46:10;;;;;;;30.40;21.50;;;;;;;;;;6308734;22;20104;-81
2022/10/22 04:48:37;;;;;;;26.30;22.38;;;;;;;;;;6308340;22;20003;-86
2022/10/22 04:51:03;;;;;;;36.55;26.13;;;;;;;;;;6308698;22;20006;-82
2022/10/22 04:53:30;;;;;;;31.98;26.17;;;;;;;;;;6308426;22;19999;-82
2022/10/22 04:56:05;;;;;;;50.08;34.92;;;;;;;;;;6308212;22;20042;-83
2022/10/22 04:58:32;;;;;;;45.92;35.58;;;;;;;;;;6308381;22;20010;-87
2022/10/22 05:00:58;;;;;;;38.22;30.13;;;;;;;;;;6308278;22;20074;-81
2022/10/22 05:03:24;;;;;;;80.43;53.35;;;;;;;;;;6308190;22;20323;-79
2022/10/22 05:05:50;;;;;;;69.82;50.92;;;;;;;;;;6307971;22;20018;-85
2022/10/22 05:08:16;;;;;;;31.83;26.40;;;;;;;;;;6308154;22;19996;-82
2022/10/22 05:10:42;;;;;;;31.83;24.98;;;;;;;;;;6308088;22;20403;-81
2022/10/22 05:13:08;;;;;;;36.88;27.92;;;;;;;;;;6308068;22;20003;-84
2022/10/22 05:15:35;;;;;;;39.13;29.92;;;;;;;;;;6307875;22;19999;-79
2022/10/22 05:18:01;;;;;;;37.72;30.92;;;;;;;;;;6304968;22;20066;-78
2022/10/22 05:20:27;;;;;;;35.72;30.00;;;;;;;;;;6306495;22;20006;-78
2022/10/22 05:22:53;;;;;;;34.30;29.30;;;;;;;;;;6307358;22;20392;-87
2022/10/22 05:25:26;;;;;;;34.55;29.27;;;;;;;;;;6308548;22;19999;-82
2022/10/22 05:27:52;;;;;;;40.75;35.47;;;;;;;;;;6305939;22;20007;-84
2022/10/22 05:30:19;;;;;;;32.25;26.98;;;;;;;;;;6305629;22;19999;-84
2022/10/22 05:32:45;;;;;;;30.30;23.25;;;;;;;;;;6306113;22;20497;-85
2022/10/22 05:35:11;;;;;;;29.85;24.30;;;;;;;;;;6306296;22;20034;-83
2022/10/22 05:37:37;;;;;;;37.83;27.95;;;;;;;;;;6278770;22;20053;-84
2022/10/22 05:40:03;;;;;;;33.10;26.27;;;;;;;;;;6306045;22;20003;-86
2022/10/22 05:42:48;;;;;;;36.50;29.13;;;;;;;;;;6278429;22;20478;-80
2022/10/22 05:45:14;;;;;;;38.55;28.15;;;;;;;;;;6306519;22;20011;-78
2022/10/22 05:47:40;;;;;;;30.63;24.15;;;;;;;;;;6305854;22;20003;-85
2022/10/22 05:50:07;;;;;;;30.25;22.88;;;;;;;;;;6306401;22;20078;-82
2022/10/22 05:52:33;;;;;;;26.13;22.60;;;;;;;;;;6306559;22;20066;-87
2022/10/22 05:54:59;;;;;;;30.85;24.85;;;;;;;;;;6307145;22;20023;-88
2022/10/22 05:57:25;;;;;;;30.27;24.40;;;;;;;;;;6307482;22;20004;-81
2022/10/22 05:59:51;;;;;;;52.90;29.67;;;;;;;;;;6308006;22;20022;-84
2022/10/22 06:02:17;;;;;;;38.97;29.92;;;;;;;;;;6307990;22;20011;-85
2022/10/22 06:04:43;;;;;;;34.97;30.25;;;;;;;;;;6306437;22;20164;-80
2022/10/22 06:07:14;;;;;;;32.35;27.92;;;;;;;;;;6279565;22;20027;-83
2022/10/22 06:09:40;;;;;;;31.13;25.85;;;;;;;;;;6305688;22;19999;-82
2022/10/22 06:12:09;;;;;;;32.65;28.80;;;;;;;;;;6306816;22;20003;-85
2022/10/22 06:14:35;;;;;;;37.63;32.75;;;;;;;;;;6307196;22;20373;-82
2022/10/22 06:17:02;;;;;;;40.63;33.88;;;;;;;;;;6307144;22;20060;-84
2022/10/22 06:19:30;;;;;;;48.13;39.33;;;;;;;;;;6307265;22;19995;-83
2022/10/22 06:21:56;;;;;;;54.22;40.70;;;;;;;;;;6307640;22;20007;-84
2022/10/22 06:24:22;;;;;;;50.42;42.78;;;;;;;;;;6306563;22;19999;-81
2022/10/22 06:26:51;;;;;;;62.13;51.08;;;;;;;;;;6306345;22;20011;-87
2022/10/22 06:29:17;;;;;;;67.75;53.13;;;;;;;;;;6306697;22;20003;-82
2022/10/22 06:31:44;;;;;;;60.90;47.85;;;;;;;;;;6307169;22;20070;-83
2022/10/22 06:34:11;;;;;;;61.90;46.45;;;;;;;;;;6279968;22;20011;-85
2022/10/22 06:36:37;;;;;;;55.40;44.80;;;;;;;;;;6306564;22;20007;-87
2022/10/22 06:39:04;;;;;;;54.30;45.60;;;;;;;;;;6307746;22;20078;-83
2022/10/22 06:41:30;;;;;;;38.88;33.88;;;;;;;;;;6308847;22;20031;-83
2022/10/22 06:43:57;;;;;;;39.72;30.48;;;;;;;;;;6309116;22;19999;-84
2022/10/22 06:46:23;;;;;;;61.47;47.63;;;;;;;;;;6309159;22;20002;-84
2022/10/22 06:48:54;;;;;;;60.42;44.42;;;;;;;;;;6309142;22;20000;-82
2022/10/22 06:51:20;;;;;;;52.50;40.75;;;;;;;;;;6309019;22;20434;-82
2022/10/22 06:53:46;;;;;;;44.80;35.03;;;;;;;;;;6308885;22;20033;-80
2022/10/22 06:56:13;;;;;;;37.95;30.20;;;;;;;;;;6308807;22;20003;-84
2022/10/22 06:58:40;;;;;;;33.10;25.23;;;;;;;;;;6281168;22;20082;-79
2022/10/22 07:01:10;;;;;;;22.77;20.05;;;;;;;;;;6309173;22;20028;-82
2022/10/22 07:03:36;;;;;;;20.35;17.55;;;;;;;;;;6281615;22;20026;-81
2022/10/22 07:06:05;;;;;;;23.75;17.60;;;;;;;;;;6308900;22;20014;-80
2022/10/22 07:08:31;;;;;;;23.75;19.92;;;;;;;;;;6308645;22;20053;-85
2022/10/22 07:11:04;;;;;;;22.92;18.98;;;;;;;;;;6308977;22;20026;-84
2022/10/22 07:13:30;;;;;;;21.50;18.67;;;;;;;;;;6281625;22;20041;-82
2022/10/22 07:15:56;;;;;;;21.58;17.27;;;;;;;;;;6308187;22;20002;-81
2022/10/22 07:18:22;;;;;;;23.00;18.40;;;;;;;;;;6309141;22;19995;-85
2022/10/22 07:20:49;;;;;;;24.42;21.45;;;;;;;;;;6281535;22;20022;-83
2022/10/22 07:23:15;;;;;;;24.88;20.85;;;;;;;;;;6308870;22;19995;-81
2022/10/22 07:25:41;;;;;;;20.35;18.23;;;;;;;;;;6308922;22;20415;-82
2022/10/22 07:28:07;;;;;;;26.73;23.83;;;;;;;;;;6308725;22;19999;-80
2022/10/22 07:30:34;;;;;;;41.03;30.60;;;;;;;;;;6308948;22;20075;-78
2022/10/22 07:33:00;;;;;;;36.03;28.77;;;;;;;;;;6307872;22;20135;-81
2022/10/22 07:35:26;;;;;;;34.22;27.50;;;;;;;;;;6308266;22;19999;-84
2022/10/22 07:37:52;;;;;;;27.63;22.92;;;;;;;;;;6308552;22;19999;-80
2022/10/22 07:40:18;;;;;;;26.98;21.67;;;;;;;;;;6308636;22;20023;-85
2022/10/22 07:42:44;;;;;;;26.63;20.08;;;;;;;;;;6308672;22;20411;-83
2022/10/22 07:45:10;;;;;;;25.85;21.35;;;;;;;;;;6308484;22;20021;-81
2022/10/22 07:47:37;;;;;;;25.90;21.05;;;;;;;;;;6308623;22;20003;-81
2022/10/22 07:50:03;;;;;;;22.42;18.33;;;;;;;;;;6308340;22;19999;-82
2022/10/22 07:52:30;;;;;;;28.35;21.00;;;;;;;;;;6307780;22;20007;-80
2022/10/22 07:54:56;;;;;;;24.10;18.83;;;;;;;;;;6308528;22;20373;-82
2022/10/22 07:57:22;;;;;;;25.85;20.02;;;;;;;;;;6308316;22;20027;-79
2022/10/22 07:59:48;;;;;;;28.13;20.73;;;;;;;;;;6309073;22;20003;-82
2022/10/22 08:02:14;;;;;;;26.35;20.52;;;;;;;;;;6308477;22;20003;-81
2022/10/22 08:04:40;;;;;;;20.17;17.92;;;;;;;;;;6308737;22;20033;-80
2022/10/22 08:07:06;;;;;;;21.35;17.65;;;;;;;;;;6308032;22;20058;-81
2022/10/22 08:09:32;;;;;;;21.55;16.80;;;;;;;;;;6308400;22;20033;-80
2022/10/22 08:11:58;;;;;;;19.42;16.35;;;;;;;;;;6307947;22;20006;-83
2022/10/22 08:14:24;;;;;;;24.52;18.60;;;;;;;;;;6307912;22;20478;-82
2022/10/22 08:16:50;;;;;;;23.75;16.42;;;;;;;;;;6308308;22;20003;-85
2022/10/22 08:19:17;;;;;;;19.02;17.02;;;;;;;;;;6308184;22;20431;-83
2022/10/22 08:21:44;;;;;;;22.88;16.70;;;;;;;;;;6308407;22;19999;-84
2022/10/22 08:24:10;;;;;;;17.85;15.43;;;;;;;;;;6308107;22;20358;-80
2022/10/22 08:26:36;;;;;;;19.75;16.15;;;;;;;;;;6308101;22;20053;-86
2022/10/22 08:29:03;;;;;;;22.05;16.65;;;;;;;;;;6308115;22;20034;-83
2022/10/22 08:31:29;;;;;;;22.05;16.25;;;;;;;;;;6308051;22;20415;-83
2022/10/22 08:33:55;;;;;;;22.35;17.35;;;;;;;;;;6307787;22;20007;-78
2022/10/22 08:36:21;;;;;;;20.60;15.98;;;;;;;;;;6307779;22;20450;-86
2022/10/22 08:38:47;;;;;;;21.40;15.93;;;;;;;;;;6307250;22;20037;-81
2022/10/22 08:41:17;;;;;;;19.75;17.10;;;;;;;;;;6307600;22;19995;-82
2022/10/22 08:44:02;;;;;;;26.20;18.92;;;;;;;;;;6308009;22;20318;-85
2022/10/22 08:46:46;;;;;;;18.92;16.88;;;;;;;;;;6306394;22;20348;-83
2022/10/22 08:49:18;;;;;;;19.95;17.67;;;;;;;;;;6280071;22;20004;-79
2022/10/22 08:51:44;;;;;;;21.00;17.30;;;;;;;;;;6306882;22;19999;-84
2022/10/22 08:54:24;;;;;;;24.35;18.77;;;;;;;;;;6307986;22;20003;-82
2022/10/22 08:57:06;;;;;;;21.00;16.65;;;;;;;;;;6307786;22;20040;-79
2022/10/22 08:59:53;;;;;;;17.33;15.48;;;;;;;;;;6308301;22;20052;-87
2022/10/22 09:02:26;;;;;;;18.15;14.18;;;;;;;;;;6307721;22;19995;-83
2022/10/22 09:04:57;;;;;;;17.70;14.57;;;;;;;;;;6307786;22;20065;-84
2022/10/22 09:07:23;;;;;;;21.13;16.63;;;;;;;;;;6307706;22;20423;-80
2022/10/22 09:09:51;;;;;;;18.85;15.77;;;;;;;;;;6307636;22;20030;-83
2022/10/22 09:12:17;;;;;;;20.67;17.15;;;;;;;;;;6307405;22;20007;-86
2022/10/22 09:14:43;;;;;;;18.92;16.95;;;;;;;;;;6307568;22;19999;-81
2022/10/22 09:17:13;;;;;;;19.67;16.08;;;;;;;;;;6307334;22;20000;-82
2022/10/22 09:19:39;;;;;;;18.13;15.10;;;;;;;;;;6307755;22;20052;-79
2022/10/22 09:22:23;;;;;;;17.88;14.43;;;;;;;;;;6308173;22;20007;-85
2022/10/22 09:24:58;;;;;;;19.73;15.50;;;;;;;;;;6307178;22;20487;-83
2022/10/22 09:27:29;;;;;;;17.05;13.60;;;;;;;;;;6307148;22;20010;-84
2022/10/22 09:29:55;;;;;;;17.77;13.45;;;;;;;;;;6280513;22;20110;-84
2022/10/22 09:32:25;;;;;;;15.57;13.73;;;;;;;;;;6306836;22;20011;-84
2022/10/22 09:34:55;;;;;;;17.63;14.93;;;;;;;;;;6307703;22;20083;-83
2022/10/22 09:37:25;;;;;;;14.82;13.18;;;;;;;;;;6307428;22;20079;-86
2022/10/22 09:39:51;;;;;;;16.17;13.88;;;;;;;;;;6307162;22;20358;-80
2022/10/22 09:42:19;;;;;;;18.20;15.13;;;;;;;;;;6307473;22;19999;-83
2022/10/22 09:44:51;;;;;;;21.52;15.38;;;;;;;;;;6280134;22;20093;-83
2022/10/22 09:47:29;;;;;;;17.52;15.73;;;;;;;;;;6307412;22;20149;-81
2022/10/22 09:50:07;;;;;;;16.50;14.63;;;;;;;;;;6307610;22;20004;-82
2022/10/22 09:52:34;;;;;;;20.42;14.20;;;;;;;;;;6308141;22;20006;-80
2022/10/22 09:55:12;;;;;;;17.60;15.10;;;;;;;;;;6307985;22;20022;-79
2022/10/22 09:57:38;;;;;;;15.10;13.57;;;;;;;;;;6307399;22;20006;-82
2022/10/22 10:00:07;;;;;;;14.60;12.95;;;;;;;;;;6306873;22;19992;-80
2022/10/22 10:02:33;;;;;;;15.57;12.40;;;;;;;;;;6307390;22;20454;-84
2022/10/22 10:05:02;;;;;;;16.23;13.25;;;;;;;;;;6307242;22;20011;-83
2022/10/22 10:07:32;;;;;;;24.85;20.40;;;;;;;;;;6307674;22;20081;-82
2022/10/22 10:09:58;;;;;;;18.15;14.80;;;;;;;;;;6307394;22;20052;-81
2022/10/22 10:12:38;;;;;;;18.48;15.27;;;;;;;;;;6307350;22;20000;-81
2022/10/22 10:15:23;;;;;;;19.80;14.02;;;;;;;;;;6308613;22;20022;-84
2022/10/22 10:18:07;;;;;;;18.08;14.77;;;;;;;;;;6309452;22;20031;-81
2022/10/22 10:20:37;;;;;;;22.15;14.82;;;;;;;;;;6309569;22;20304;-80
2022/10/22 10:23:22;;;;;;;20.70;13.68;;;;;;;;;;6309370;22;19999;-80
2022/10/22 10:25:53;;;;;;;16.88;14.00;;;;;;;;;;6309233;22;20446;-82
2022/10/22 10:28:24;;;;;;;15.77;13.20;;;;;;;;;;6308405;22;20023;-81
2022/10/22 10:31:01;;;;;;;15.02;13.48;;;;;;;;;;6309364;22;19998;-83
2022/10/22 10:33:46;;;;;;;15.40;13.82;;;;;;;;;;6281745;22;20003;-84
2022/10/22 10:36:15;;;;;;;14.93;13.30;;;;;;;;;;6308949;22;20064;-84
2022/10/22 10:38:44;;;;;;;14.85;13.13;;;;;;;;;;6309233;22;20308;-81
2022/10/22 10:41:29;;;;;;;18.02;14.57;;;;;;;;;;6309003;22;19999;-79
2022/10/22 10:44:04;;;;;;;18.52;15.57;;;;;;;;;;6309140;22;20003;-79
2022/10/22 10:46:37;;;;;;;16.20;13.73;;;;;;;;;;6309094;22;20010;-80
2022/10/22 10:49:03;;;;;;;13.52;12.15;;;;;;;;;;6308841;22;20006;-78
2022/10/22 10:51:45;;;;;;;16.08;14.35;;;;;;;;;;6309134;22;20027;-78
2022/10/22 10:54:30;;;;;;;18.10;12.25;;;;;;;;;;6308850;22;20390;-85
2022/10/22 10:56:56;;;;;;;;;;;;;;;;;;6309010;22;20011;-81
2022/10/22 10:59:28;;;;;;;13.82;11.68;;;;;;;;;;6309346;22;19956;-83
2022/10/22 11:02:13;;;;;;;14.57;12.55;;;;;;;;;;6309034;22;20079;-84
2022/10/22 11:04:39;;;;;;;;;;;;;;;;;;6282057;22;20023;-82
2022/10/22 11:07:09;;;;;;;17.30;13.73;;;;;;;;;;6308811;22;19930;-84
2022/10/22 11:09:43;;;;;;;13.32;12.02;;;;;;;;;;6309060;22;20000;-83
2022/10/22 11:12:13;;;;;;;16.10;14.40;;;;;;;;;;6281361;22;20006;-81
2022/10/22 11:15:01;;;;;;;14.73;13.10;;;;;;;;;;6308942;22;20003;-82
2022/10/22 11:17:33;;;;;;;16.42;13.88;;;;;;;;;;6308019;22;20002;-85
2022/10/22 11:20:14;;;;;;;18.65;13.85;;;;;;;;;;6308834;22;20326;-86
2022/10/22 11:22:47;;;;;;;13.88;12.43;;;;;;;;;;6308911;22;20004;-86
2022/10/22 11:25:17;;;;;;;14.32;12.30;;;;;;;;;;6308383;22;19995;-82
2022/10/22 11:27:46;;;;;;;19.55;15.07;;;;;;;;;;6308709;22;20373;-83
2022/10/22 11:30:16;;;;;;;18.33;14.18;;;;;;;;;;6308644;22;20010;-84
2022/10/22 11:32:45;;;;;;;16.35;12.32;;;;;;;;;;6308882;22;19999;-80
2022/10/22 11:35:14;;;;;;;13.85;12.45;;;;;;;;;;6308112;22;20003;-83
2022/10/22 11:37:42;;;;;;;17.20;13.80;;;;;;;;;;6309305;22;19995;-86
2022/10/22 11:40:15;;;;;;;15.80;12.25;;;;;;;;;;6308694;22;20003;-80
2022/10/22 11:42:45;;;;;;;14.65;11.85;;;;;;;;;;6308467;22;19996;-83
2022/10/22 11:45:14;;;;;;;13.98;12.45;;;;;;;;;;6308621;22;20002;-82
2022/10/22 11:47:59;;;;;;;15.15;12.45;;;;;;;;;;6307929;22;20006;-83
2022/10/22 11:50:47;;;;;;;12.77;11.35;;;;;;;;;;6308675;22;20010;-82
2022/10/22 11:53:13;;;;;;;13.52;11.95;;;;;;;;;;6308146;22;20003;-83
2022/10/22 11:55:58;;;;;;;13.05;11.68;;;;;;;;;;6307702;22;20003;-81
2022/10/22 11:58:46;;;;;;;13.40;11.65;;;;;;;;;;6308481;22;20011;-82
2022/10/22 12:01:12;;;;;;;12.90;11.50;;;;;;;;;;6281155;22;19999;-82
2022/10/22 12:03:39;;;;;;;14.20;11.50;;;;;;;;;;6308163;22;20000;-80
2022/10/22 12:06:10;;;;;;;14.10;12.38;;;;;;;;;;6281047;22;20031;-83
2022/10/22 12:08:50;;;;;;;13.75;11.43;;;;;;;;;;6308437;22;20007;-84
2022/10/22 12:11:21;;;;;;;14.50;11.40;;;;;;;;;;6308403;22;20450;-82
2022/10/22 12:13:52;;;;;;;15.55;11.60;;;;;;;;;;6308199;22;20007;-80
2022/10/22 12:16:23;;;;;;;21.45;12.23;;;;;;;;;;6280843;22;20015;-81
2022/10/22 12:18:49;;;;;;;13.68;11.77;;;;;;;;;;6280717;22;20023;-82
2022/10/22 12:21:16;;;;;;;14.48;12.40;;;;;;;;;;6308150;22;20459;-83
2022/10/22 12:23:43;;;;;;;13.88;12.48;;;;;;;;;;6308207;22;20015;-82
2022/10/22 12:26:28;;;;;;;16.75;12.13;;;;;;;;;;6307680;22;20366;-80
2022/10/22 12:52:26;;;;;;;13.57;12.13;;;;;;;;;;5132519;27;199817;-79
2022/10/22 12:54:53;;;;;;;12.85;11.70;;;;;;;;;;5160661;27;20540;-79
2022/10/22 12:57:20;;;;;;;11.60;10.25;;;;;;;;;;5161183;27;20113;-78
2022/10/22 12:59:47;;;;;;;20.63;18.17;;;;;;;;;;5153101;27;20027;-79
2022/10/22 13:02:20;;;;;;;13.90;12.57;;;;;;;;;;5151144;27;20035;-78
2022/10/22 13:05:05;;;;;;;13.80;12.23;;;;;;;;;;5151041;27;20033;-79
2022/10/22 13:07:38;;;;;;;13.82;11.02;;;;;;;;;;5169105;27;20663;-80
2022/10/22 13:10:15;;;;;;;17.98;12.55;;;;;;;;;;5167402;27;20464;-79
2022/10/22 13:12:43;;;;;;;15.07;12.50;;;;;;;;;;5152053;27;20389;-79
2022/10/22 13:15:28;;;;;;;12.60;11.40;;;;;;;;;;5159109;27;20027;-79
2022/10/22 13:18:02;;;;;;;11.98;10.73;;;;;;;;;;5144153;27;20055;-79
2022/10/22 13:20:28;;;;;;;12.65;11.40;;;;;;;;;;5150716;27;20042;-80
2022/10/22 13:22:59;;;;;;;13.43;12.00;;;;;;;;;;5150396;27;20038;-79
2022/10/22 13:25:26;;;;;;;14.23;12.65;;;;;;;;;;5150586;27;20030;-78
2022/10/22 13:27:57;;;;;;;13.18;11.15;;;;;;;;;;5150435;27;20023;-78
2022/10/22 13:30:42;;;;;;;12.10;10.77;;;;;;;;;;5150389;27;20019;-80
2022/10/22 13:33:25;;;;;;;12.75;10.70;;;;;;;;;;5150535;27;20030;-80
2022/10/22 13:35:51;;;;;;;22.02;15.15;;;;;;;;;;5150459;27;20031;-78
2022/10/22 13:38:21;;;;;;;14.27;12.77;;;;;;;;;;5150160;27;20083;-78
2022/10/22 13:40:48;;;;;;;14.73;11.13;;;;;;;;;;5131664;27;20042;-77
2022/10/22 13:43:14;;;;;;;12.77;10.95;;;;;;;;;;5149611;27;20022;-79
2022/10/22 13:45:40;;;;;;;11.07;9.63;;;;;;;;;;5149922;27;20034;-77
2022/10/22 13:48:09;;;;;;;13.02;10.02;;;;;;;;;;5150293;27;20096;-79
2022/10/22 13:50:35;;;;;;;12.45;10.80;;;;;;;;;;5149860;27;20062;-79
2022/10/22 13:53:01;;;;;;;10.63;9.63;;;;;;;;;;5138300;27;20053;-80
2022/10/22 13:55:29;;;;;;;10.90;9.77;;;;;;;;;;5117344;27;20107;-79
2022/10/22 13:58:16;;;;;;;11.25;10.02;;;;;;;;;;5135730;27;20052;-79
2022/10/22 14:00:43;;;;;;;11.30;9.98;;;;;;;;;;5135800;27;20034;-80
2022/10/22 14:03:11;;;;;;;10.75;9.50;;;;;;;;;;5135734;27;20061;-79
2022/10/22 14:05:37;;;;;;;10.10;9.10;;;;;;;;;;5135850;27;20027;-80
2022/10/22 14:08:03;;;;;;;11.73;10.13;;;;;;;;;;5135916;27;20031;-80
2022/10/22 14:10:29;;;;;;;14.50;10.73;;;;;;;;;;5135926;27;20101;-79
2022/10/22 14:12:57;;;;;;;11.40;10.18;;;;;;;;;;5136006;27;20084;-80
2022/10/22 14:15:24;;;;;;;10.57;9.27;;;;;;;;;;5135678;27;20110;-80
2022/10/22 14:17:55;;;;;;;10.02;9.13;;;;;;;;;;5135376;27;20422;-80
2022/10/22 14:20:24;;;;;;;11.45;10.23;;;;;;;;;;5135782;27;20031;-79
2022/10/22 14:22:50;;;;;;;12.63;11.43;;;;;;;;;;5135969;27;20035;-80
2022/10/22 14:25:18;;;;;;;11.23;10.02;;;;;;;;;;5135747;27;20024;-79
2022/10/22 14:27:44;;;;;;;10.65;9.55;;;;;;;;;;5135448;27;20507;-80
2022/10/22 14:30:14;;;;;;;11.77;9.48;;;;;;;;;;5135577;27;20015;-80
2022/10/22 14:32:40;;;;;;;10.25;9.25;;;;;;;;;;5135484;27;20388;-80
2022/10/22 14:35:06;;;;;;;12.65;11.30;;;;;;;;;;5135390;27;20030;-80
2022/10/22 14:37:32;;;;;;;12.52;11.15;;;;;;;;;;5134667;27;20027;-79
2022/10/22 14:40:00;;;;;;;19.48;15.63;;;;;;;;;;5135172;27;20075;-79
2022/10/22 14:42:27;;;;;;;17.88;16.13;;;;;;;;;;5135273;27;20027;-78
2022/10/22 14:44:53;;;;;;;18.13;16.35;;;;;;;;;;5135221;27;20023;-80
2022/10/22 14:47:20;;;;;;;18.98;16.83;;;;;;;;;;5134918;27;20023;-80
2022/10/22 14:49:46;;;;;;;30.63;27.30;;;;;;;;;;5135028;27;20049;-79
2022/10/22 14:52:12;;;;;;;17.92;15.88;;;;;;;;;;5134832;27;20047;-79
2022/10/22 14:54:38;;;;;;;23.10;20.48;;;;;;;;;;5135207;27;20039;-80